sensor_id;sensor_type;location;lat;lon;timestamp;P1;durP1;ratioP1;P2;durP2;ratioP2
19406;SDS011;9839;53.364;-1.204;2023-04-06T00:01:51;23.10;;;11.13;;
19406;SDS011;9839;53.364;-1.204;2023-04-06T00:04:17;24.17;;;11.33;;
19406;SDS011;9839;53.364;-1.204;2023-04-06T00:06:42;24.30;;;10.30;;
19406;SDS011;9839;53.364;-1.204;2023-04-06T00:09:08;24.77;;;10.60;;
19406;SDS011;9839;53.364;-1.204;2023-04-06T00:11:33;25.50;;;10.73;;
19406;SDS011;9839;53.364;-1.204;2023-04-06T00:13:59;22.37;;;10.13;;
19406;SDS011;9839;53.364;-1.204;2023-04-06T00:16:25;22.83;;;10.67;;
19406;SDS011;9839;53.364;-1.204;2023-04-06T00:18:50;23.40;;;10.67;;
19406;SDS011;9839;53.364;-1.204;2023-04-06T00:21:16;23.27;;;10.23;;
19406;SDS011;9839;53.364;-1.204;2023-04-06T00:23:41;22.03;;;9.87;;
19406;SDS011;9839;53.364;-1.204;2023-04-06T00:26:07;19.60;;;9.73;;
19406;SDS011;9839;53.364;-1.204;2023-04-06T00:28:33;20.33;;;9.43;;
19406;SDS011;9839;53.364;-1.204;2023-04-06T00:30:59;20.87;;;10.20;;
19406;SDS011;9839;53.364;-1.204;2023-04-06T00:33:24;23.60;;;10.53;;
19406;SDS011;9839;53.364;-1.204;2023-04-06T00:35:49;20.37;;;9.50;;
19406;SDS011;9839;53.364;-1.204;2023-04-06T00:38:15;21.83;;;9.87;;
19406;SDS011;9839;53.364;-1.204;2023-04-06T00:40:41;20.27;;;10.00;;
19406;SDS011;9839;53.364;-1.204;2023-04-06T00:43:09;22.50;;;9.57;;
19406;SDS011;9839;53.364;-1.204;2023-04-06T00:45:35;25.23;;;11.10;;
19406;SDS011;9839;53.364;-1.204;2023-04-06T00:48:00;19.43;;;8.97;;
19406;SDS011;9839;53.364;-1.204;2023-04-06T00:50:26;20.83;;;10.70;;
19406;SDS011;9839;53.364;-1.204;2023-04-06T00:52:52;25.23;;;10.73;;
19406;SDS011;9839;53.364;-1.204;2023-04-06T00:55:18;30.27;;;10.70;;
19406;SDS011;9839;53.364;-1.204;2023-04-06T00:57:44;24.40;;;10.47;;
19406;SDS011;9839;53.364;-1.204;2023-04-06T01:00:10;25.50;;;10.63;;
19406;SDS011;9839;53.364;-1.204;2023-04-06T01:02:36;24.67;;;10.93;;
19406;SDS011;9839;53.364;-1.204;2023-04-06T01:05:01;20.53;;;9.80;;
19406;SDS011;9839;53.364;-1.204;2023-04-06T01:07:27;23.37;;;10.23;;
19406;SDS011;9839;53.364;-1.204;2023-04-06T01:09:55;23.07;;;10.20;;
19406;SDS011;9839;53.364;-1.204;2023-04-06T01:12:20;21.90;;;10.40;;
19406;SDS011;9839;53.364;-1.204;2023-04-06T01:14:46;22.67;;;10.03;;
19406;SDS011;9839;53.364;-1.204;2023-04-06T01:17:11;23.33;;;10.77;;
19406;SDS011;9839;53.364;-1.204;2023-04-06T01:19:37;21.43;;;9.50;;
19406;SDS011;9839;53.364;-1.204;2023-04-06T01:22:02;23.47;;;10.17;;
19406;SDS011;9839;53.364;-1.204;2023-04-06T01:24:28;24.30;;;11.73;;
19406;SDS011;9839;53.364;-1.204;2023-04-06T01:26:53;26.47;;;10.40;;
19406;SDS011;9839;53.364;-1.204;2023-04-06T01:29:19;20.87;;;9.73;;
19406;SDS011;9839;53.364;-1.204;2023-04-06T01:31:44;22.80;;;10.97;;
19406;SDS011;9839;53.364;-1.204;2023-04-06T01:34:10;26.73;;;11.13;;
19406;SDS011;9839;53.364;-1.204;2023-04-06T01:36:35;21.40;;;10.47;;
19406;SDS011;9839;53.364;-1.204;2023-04-06T01:39:01;23.27;;;9.97;;
19406;SDS011;9839;53.364;-1.204;2023-04-06T01:41:26;22.87;;;10.23;;
19406;SDS011;9839;53.364;-1.204;2023-04-06T01:43:51;26.00;;;10.57;;
19406;SDS011;9839;53.364;-1.204;2023-04-06T01:46:19;24.80;;;11.00;;
19406;SDS011;9839;53.364;-1.204;2023-04-06T01:48:45;23.70;;;10.57;;
19406;SDS011;9839;53.364;-1.204;2023-04-06T01:51:11;26.10;;;10.80;;
19406;SDS011;9839;53.364;-1.204;2023-04-06T01:53:36;22.03;;;10.23;;
19406;SDS011;9839;53.364;-1.204;2023-04-06T01:56:01;23.23;;;10.37;;
19406;SDS011;9839;53.364;-1.204;2023-04-06T01:58:27;23.97;;;9.97;;
19406;SDS011;9839;53.364;-1.204;2023-04-06T02:00:52;25.00;;;10.63;;
19406;SDS011;9839;53.364;-1.204;2023-04-06T02:03:18;21.30;;;9.97;;
19406;SDS011;9839;53.364;-1.204;2023-04-06T02:05:43;22.57;;;9.83;;
19406;SDS011;9839;53.364;-1.204;2023-04-06T02:08:08;21.70;;;10.00;;
19406;SDS011;9839;53.364;-1.204;2023-04-06T02:10:34;27.37;;;10.87;;
19406;SDS011;9839;53.364;-1.204;2023-04-06T02:13:00;26.87;;;10.63;;
19406;SDS011;9839;53.364;-1.204;2023-04-06T02:15:26;29.03;;;11.37;;
19406;SDS011;9839;53.364;-1.204;2023-04-06T02:17:51;27.63;;;10.30;;
19406;SDS011;9839;53.364;-1.204;2023-04-06T02:20:17;22.87;;;10.17;;
19406;SDS011;9839;53.364;-1.204;2023-04-06T02:22:42;19.80;;;10.50;;
19406;SDS011;9839;53.364;-1.204;2023-04-06T02:25:08;25.43;;;10.83;;
19406;SDS011;9839;53.364;-1.204;2023-04-06T02:27:34;23.23;;;10.03;;
19406;SDS011;9839;53.364;-1.204;2023-04-06T02:30:01;20.00;;;9.57;;
19406;SDS011;9839;53.364;-1.204;2023-04-06T02:32:27;20.90;;;10.03;;
19406;SDS011;9839;53.364;-1.204;2023-04-06T02:34:52;22.97;;;10.57;;
19406;SDS011;9839;53.364;-1.204;2023-04-06T02:37:17;22.40;;;10.10;;
19406;SDS011;9839;53.364;-1.204;2023-04-06T02:39:43;26.13;;;11.13;;
19406;SDS011;9839;53.364;-1.204;2023-04-06T02:42:08;25.30;;;10.13;;
19406;SDS011;9839;53.364;-1.204;2023-04-06T02:44:34;24.27;;;10.40;;
19406;SDS011;9839;53.364;-1.204;2023-04-06T02:46:59;22.23;;;10.00;;
19406;SDS011;9839;53.364;-1.204;2023-04-06T02:49:25;27.40;;;9.87;;
19406;SDS011;9839;53.364;-1.204;2023-04-06T02:51:50;26.43;;;10.60;;
19406;SDS011;9839;53.364;-1.204;2023-04-06T02:54:16;22.40;;;10.10;;
19406;SDS011;9839;53.364;-1.204;2023-04-06T02:56:41;25.10;;;10.90;;
19406;SDS011;9839;53.364;-1.204;2023-04-06T02:59:07;20.10;;;10.27;;
19406;SDS011;9839;53.364;-1.204;2023-04-06T03:01:32;23.27;;;9.83;;
19406;SDS011;9839;53.364;-1.204;2023-04-06T03:03:57;23.00;;;9.90;;
19406;SDS011;9839;53.364;-1.204;2023-04-06T03:06:23;22.57;;;9.83;;
19406;SDS011;9839;53.364;-1.204;2023-04-06T03:08:48;21.20;;;9.87;;
19406;SDS011;9839;53.364;-1.204;2023-04-06T03:11:14;25.00;;;10.27;;
19406;SDS011;9839;53.364;-1.204;2023-04-06T03:13:39;24.93;;;10.87;;
19406;SDS011;9839;53.364;-1.204;2023-04-06T03:16:05;27.00;;;10.23;;
19406;SDS011;9839;53.364;-1.204;2023-04-06T03:18:31;18.90;;;8.90;;
19406;SDS011;9839;53.364;-1.204;2023-04-06T03:20:57;20.77;;;10.07;;
19406;SDS011;9839;53.364;-1.204;2023-04-06T03:23:22;25.90;;;10.13;;
19406;SDS011;9839;53.364;-1.204;2023-04-06T03:25:47;21.07;;;9.77;;
19406;SDS011;9839;53.364;-1.204;2023-04-06T03:28:13;21.70;;;9.43;;
19406;SDS011;9839;53.364;-1.204;2023-04-06T03:30:38;17.93;;;8.73;;
19406;SDS011;9839;53.364;-1.204;2023-04-06T03:33:04;20.23;;;8.83;;
19406;SDS011;9839;53.364;-1.204;2023-04-06T03:35:30;17.77;;;7.97;;
19406;SDS011;9839;53.364;-1.204;2023-04-06T03:37:55;17.30;;;7.67;;
19406;SDS011;9839;53.364;-1.204;2023-04-06T03:40:21;19.97;;;8.17;;
19406;SDS011;9839;53.364;-1.204;2023-04-06T03:42:46;18.00;;;8.13;;
19406;SDS011;9839;53.364;-1.204;2023-04-06T03:45:11;18.30;;;7.90;;
19406;SDS011;9839;53.364;-1.204;2023-04-06T03:47:40;14.73;;;6.23;;
19406;SDS011;9839;53.364;-1.204;2023-04-06T03:50:05;15.67;;;6.80;;
19406;SDS011;9839;53.364;-1.204;2023-04-06T03:52:31;16.83;;;6.43;;
19406;SDS011;9839;53.364;-1.204;2023-04-06T03:54:57;13.67;;;6.77;;
19406;SDS011;9839;53.364;-1.204;2023-04-06T03:57:22;16.27;;;6.40;;
19406;SDS011;9839;53.364;-1.204;2023-04-06T03:59:47;14.43;;;6.03;;
19406;SDS011;9839;53.364;-1.204;2023-04-06T04:02:13;11.40;;;6.00;;
19406;SDS011;9839;53.364;-1.204;2023-04-06T04:04:38;13.73;;;6.33;;
19406;SDS011;9839;53.364;-1.204;2023-04-06T04:07:04;14.17;;;6.23;;
19406;SDS011;9839;53.364;-1.204;2023-04-06T04:09:29;12.43;;;6.57;;
19406;SDS011;9839;53.364;-1.204;2023-04-06T04:11:55;20.20;;;6.33;;
19406;SDS011;9839;53.364;-1.204;2023-04-06T04:14:20;13.90;;;7.53;;
19406;SDS011;9839;53.364;-1.204;2023-04-06T04:16:52;17.13;;;7.00;;
19406;SDS011;9839;53.364;-1.204;2023-04-06T04:19:17;14.17;;;7.13;;
19406;SDS011;9839;53.364;-1.204;2023-04-06T04:21:43;18.50;;;6.97;;
19406;SDS011;9839;53.364;-1.204;2023-04-06T04:24:10;18.47;;;6.70;;
19406;SDS011;9839;53.364;-1.204;2023-04-06T04:26:35;11.00;;;5.67;;
19406;SDS011;9839;53.364;-1.204;2023-04-06T04:29:01;13.03;;;5.90;;
19406;SDS011;9839;53.364;-1.204;2023-04-06T04:31:26;12.17;;;6.10;;
19406;SDS011;9839;53.364;-1.204;2023-04-06T04:33:51;11.60;;;6.37;;
19406;SDS011;9839;53.364;-1.204;2023-04-06T04:36:17;11.63;;;5.93;;
19406;SDS011;9839;53.364;-1.204;2023-04-06T04:38:42;11.00;;;6.07;;
19406;SDS011;9839;53.364;-1.204;2023-04-06T04:41:08;12.10;;;5.57;;
19406;SDS011;9839;53.364;-1.204;2023-04-06T04:43:33;9.57;;;4.77;;
19406;SDS011;9839;53.364;-1.204;2023-04-06T04:45:59;10.93;;;5.23;;
19406;SDS011;9839;53.364;-1.204;2023-04-06T04:48:24;8.77;;;4.80;;
19406;SDS011;9839;53.364;-1.204;2023-04-06T04:50:50;10.17;;;5.30;;
19406;SDS011;9839;53.364;-1.204;2023-04-06T04:53:16;9.90;;;5.17;;
19406;SDS011;9839;53.364;-1.204;2023-04-06T04:55:41;12.13;;;4.93;;
19406;SDS011;9839;53.364;-1.204;2023-04-06T04:58:07;12.20;;;5.40;;
19406;SDS011;9839;53.364;-1.204;2023-04-06T05:00:34;12.07;;;5.10;;
19406;SDS011;9839;53.364;-1.204;2023-04-06T05:02:59;10.50;;;5.53;;
19406;SDS011;9839;53.364;-1.204;2023-04-06T05:05:25;17.63;;;6.90;;
19406;SDS011;9839;53.364;-1.204;2023-04-06T05:07:50;15.27;;;5.70;;
19406;SDS011;9839;53.364;-1.204;2023-04-06T05:10:16;13.83;;;6.13;;
19406;SDS011;9839;53.364;-1.204;2023-04-06T05:12:41;14.50;;;5.90;;
19406;SDS011;9839;53.364;-1.204;2023-04-06T05:15:07;13.90;;;6.07;;
19406;SDS011;9839;53.364;-1.204;2023-04-06T05:17:33;13.33;;;5.80;;
19406;SDS011;9839;53.364;-1.204;2023-04-06T05:19:59;15.47;;;5.97;;
19406;SDS011;9839;53.364;-1.204;2023-04-06T05:22:24;17.03;;;6.60;;
19406;SDS011;9839;53.364;-1.204;2023-04-06T05:24:50;14.50;;;5.47;;
19406;SDS011;9839;53.364;-1.204;2023-04-06T05:27:15;13.10;;;5.70;;
19406;SDS011;9839;53.364;-1.204;2023-04-06T05:29:41;15.00;;;6.63;;
19406;SDS011;9839;53.364;-1.204;2023-04-06T05:32:06;13.30;;;5.87;;
19406;SDS011;9839;53.364;-1.204;2023-04-06T05:34:31;13.97;;;6.23;;
19406;SDS011;9839;53.364;-1.204;2023-04-06T05:36:57;16.20;;;6.07;;
19406;SDS011;9839;53.364;-1.204;2023-04-06T05:39:22;14.70;;;5.83;;
19406;SDS011;9839;53.364;-1.204;2023-04-06T05:41:48;17.57;;;5.73;;
19406;SDS011;9839;53.364;-1.204;2023-04-06T05:44:14;13.03;;;5.63;;
19406;SDS011;9839;53.364;-1.204;2023-04-06T05:46:39;13.97;;;6.00;;
19406;SDS011;9839;53.364;-1.204;2023-04-06T05:49:05;16.77;;;6.40;;
19406;SDS011;9839;53.364;-1.204;2023-04-06T05:51:30;15.87;;;6.33;;
19406;SDS011;9839;53.364;-1.204;2023-04-06T05:53:56;15.20;;;7.33;;
19406;SDS011;9839;53.364;-1.204;2023-04-06T05:56:22;13.73;;;6.13;;
19406;SDS011;9839;53.364;-1.204;2023-04-06T05:58:48;14.93;;;6.27;;
19406;SDS011;9839;53.364;-1.204;2023-04-06T06:01:14;18.90;;;6.63;;
19406;SDS011;9839;53.364;-1.204;2023-04-06T06:03:40;13.37;;;6.37;;
19406;SDS011;9839;53.364;-1.204;2023-04-06T06:06:05;11.30;;;5.33;;
19406;SDS011;9839;53.364;-1.204;2023-04-06T06:08:31;10.70;;;5.23;;
19406;SDS011;9839;53.364;-1.204;2023-04-06T06:10:56;15.80;;;5.90;;
19406;SDS011;9839;53.364;-1.204;2023-04-06T06:13:22;14.85;;;6.55;;
19406;SDS011;9839;53.364;-1.204;2023-04-06T06:15:48;15.37;;;6.50;;
19406;SDS011;9839;53.364;-1.204;2023-04-06T06:18:14;15.73;;;6.43;;
19406;SDS011;9839;53.364;-1.204;2023-04-06T06:20:40;15.80;;;6.30;;
19406;SDS011;9839;53.364;-1.204;2023-04-06T06:23:05;16.60;;;7.60;;
19406;SDS011;9839;53.364;-1.204;2023-04-06T06:25:31;18.93;;;8.27;;
19406;SDS011;9839;53.364;-1.204;2023-04-06T06:27:57;18.20;;;6.63;;
19406;SDS011;9839;53.364;-1.204;2023-04-06T06:30:22;12.27;;;5.67;;
19406;SDS011;9839;53.364;-1.204;2023-04-06T06:32:48;15.77;;;7.00;;
19406;SDS011;9839;53.364;-1.204;2023-04-06T06:35:13;15.07;;;6.73;;
19406;SDS011;9839;53.364;-1.204;2023-04-06T06:37:39;17.70;;;6.50;;
19406;SDS011;9839;53.364;-1.204;2023-04-06T06:40:05;14.70;;;6.70;;
19406;SDS011;9839;53.364;-1.204;2023-04-06T06:42:30;16.27;;;7.00;;
19406;SDS011;9839;53.364;-1.204;2023-04-06T06:44:56;15.70;;;7.37;;
19406;SDS011;9839;53.364;-1.204;2023-04-06T06:47:21;15.70;;;6.75;;
19406;SDS011;9839;53.364;-1.204;2023-04-06T06:49:47;12.80;;;6.27;;
19406;SDS011;9839;53.364;-1.204;2023-04-06T06:52:12;15.60;;;6.73;;
19406;SDS011;9839;53.364;-1.204;2023-04-06T06:54:38;12.10;;;6.33;;
19406;SDS011;9839;53.364;-1.204;2023-04-06T06:57:03;15.68;;;6.50;;
19406;SDS011;9839;53.364;-1.204;2023-04-06T06:59:28;19.27;;;6.20;;
19406;SDS011;9839;53.364;-1.204;2023-04-06T07:01:54;11.57;;;5.30;;
19406;SDS011;9839;53.364;-1.204;2023-04-06T07:04:20;14.30;;;6.47;;
19406;SDS011;9839;53.364;-1.204;2023-04-06T07:06:45;10.90;;;5.30;;
19406;SDS011;9839;53.364;-1.204;2023-04-06T07:09:11;8.73;;;5.00;;
19406;SDS011;9839;53.364;-1.204;2023-04-06T07:11:36;8.97;;;4.33;;
19406;SDS011;9839;53.364;-1.204;2023-04-06T07:14:02;7.23;;;4.67;;
19406;SDS011;9839;53.364;-1.204;2023-04-06T07:16:27;11.47;;;5.73;;
19406;SDS011;9839;53.364;-1.204;2023-04-06T07:18:52;16.53;;;6.27;;
19406;SDS011;9839;53.364;-1.204;2023-04-06T07:21:18;13.13;;;6.50;;
19406;SDS011;9839;53.364;-1.204;2023-04-06T07:23:43;17.93;;;6.20;;
19406;SDS011;9839;53.364;-1.204;2023-04-06T07:26:09;10.30;;;4.93;;
19406;SDS011;9839;53.364;-1.204;2023-04-06T07:28:34;13.23;;;4.57;;
19406;SDS011;9839;53.364;-1.204;2023-04-06T07:31:00;8.87;;;4.97;;
19406;SDS011;9839;53.364;-1.204;2023-04-06T07:33:25;11.87;;;4.13;;
19406;SDS011;9839;53.364;-1.204;2023-04-06T07:35:54;8.57;;;3.93;;
19406;SDS011;9839;53.364;-1.204;2023-04-06T07:38:20;6.53;;;3.40;;
19406;SDS011;9839;53.364;-1.204;2023-04-06T07:40:46;6.43;;;3.17;;
19406;SDS011;9839;53.364;-1.204;2023-04-06T07:43:11;7.63;;;3.00;;
19406;SDS011;9839;53.364;-1.204;2023-04-06T07:45:37;7.03;;;2.57;;
19406;SDS011;9839;53.364;-1.204;2023-04-06T07:48:02;6.43;;;2.50;;
19406;SDS011;9839;53.364;-1.204;2023-04-06T07:50:27;9.30;;;3.20;;
19406;SDS011;9839;53.364;-1.204;2023-04-06T07:52:53;4.40;;;1.87;;
19406;SDS011;9839;53.364;-1.204;2023-04-06T07:55:18;5.00;;;1.93;;
19406;SDS011;9839;53.364;-1.204;2023-04-06T07:57:44;4.03;;;1.60;;
19406;SDS011;9839;53.364;-1.204;2023-04-06T08:00:10;2.27;;;1.33;;
19406;SDS011;9839;53.364;-1.204;2023-04-06T08:02:36;4.93;;;1.60;;
19406;SDS011;9839;53.364;-1.204;2023-04-06T08:05:01;5.73;;;1.33;;
19406;SDS011;9839;53.364;-1.204;2023-04-06T08:07:27;3.33;;;1.40;;
19406;SDS011;9839;53.364;-1.204;2023-04-06T08:09:52;4.07;;;1.40;;
19406;SDS011;9839;53.364;-1.204;2023-04-06T08:12:18;7.43;;;1.63;;
19406;SDS011;9839;53.364;-1.204;2023-04-06T08:14:43;5.67;;;1.30;;
19406;SDS011;9839;53.364;-1.204;2023-04-06T08:17:08;3.40;;;1.07;;
19406;SDS011;9839;53.364;-1.204;2023-04-06T08:19:34;3.87;;;1.20;;
19406;SDS011;9839;53.364;-1.204;2023-04-06T08:21:59;3.50;;;0.87;;
19406;SDS011;9839;53.364;-1.204;2023-04-06T08:24:25;2.93;;;0.67;;
19406;SDS011;9839;53.364;-1.204;2023-04-06T08:26:50;1.53;;;0.83;;
19406;SDS011;9839;53.364;-1.204;2023-04-06T08:29:16;3.03;;;1.20;;
19406;SDS011;9839;53.364;-1.204;2023-04-06T08:31:42;1.60;;;0.90;;
19406;SDS011;9839;53.364;-1.204;2023-04-06T08:34:08;6.03;;;0.80;;
19406;SDS011;9839;53.364;-1.204;2023-04-06T08:36:33;16.43;;;4.60;;
19406;SDS011;9839;53.364;-1.204;2023-04-06T08:38:59;25.07;;;6.10;;
19406;SDS011;9839;53.364;-1.204;2023-04-06T08:41:25;16.00;;;3.67;;
19406;SDS011;9839;53.364;-1.204;2023-04-06T08:43:53;4.90;;;1.77;;
19406;SDS011;9839;53.364;-1.204;2023-04-06T08:46:21;11.70;;;1.60;;
19406;SDS011;9839;53.364;-1.204;2023-04-06T08:48:46;5.60;;;1.17;;
19406;SDS011;9839;53.364;-1.204;2023-04-06T08:51:14;5.00;;;1.27;;
19406;SDS011;9839;53.364;-1.204;2023-04-06T08:53:40;4.00;;;1.30;;
19406;SDS011;9839;53.364;-1.204;2023-04-06T08:56:06;5.57;;;1.50;;
19406;SDS011;9839;53.364;-1.204;2023-04-06T08:58:35;4.93;;;1.20;;
19406;SDS011;9839;53.364;-1.204;2023-04-06T09:01:02;5.80;;;1.43;;
19406;SDS011;9839;53.364;-1.204;2023-04-06T09:03:32;6.97;;;1.30;;
19406;SDS011;9839;53.364;-1.204;2023-04-06T09:06:01;4.15;;;1.05;;
19406;SDS011;9839;53.364;-1.204;2023-04-06T09:08:26;4.17;;;1.13;;
19406;SDS011;9839;53.364;-1.204;2023-04-06T09:10:52;4.83;;;1.27;;
19406;SDS011;9839;53.364;-1.204;2023-04-06T09:13:17;6.95;;;1.63;;
19406;SDS011;9839;53.364;-1.204;2023-04-06T09:15:43;3.83;;;1.30;;
19406;SDS011;9839;53.364;-1.204;2023-04-06T09:18:08;3.70;;;0.80;;
19406;SDS011;9839;53.364;-1.204;2023-04-06T09:20:34;5.93;;;1.35;;
19406;SDS011;9839;53.364;-1.204;2023-04-06T09:23:00;3.73;;;0.87;;
19406;SDS011;9839;53.364;-1.204;2023-04-06T09:25:25;6.07;;;1.20;;
19406;SDS011;9839;53.364;-1.204;2023-04-06T09:28:00;2.93;;;1.00;;
19406;SDS011;9839;53.364;-1.204;2023-04-06T09:30:27;5.15;;;0.98;;
19406;SDS011;9839;53.364;-1.204;2023-04-06T09:32:53;2.80;;;1.00;;
19406;SDS011;9839;53.364;-1.204;2023-04-06T09:35:20;7.47;;;1.03;;
19406;SDS011;9839;53.364;-1.204;2023-04-06T09:37:46;5.15;;;1.00;;
19406;SDS011;9839;53.364;-1.204;2023-04-06T09:40:12;5.70;;;1.33;;
19406;SDS011;9839;53.364;-1.204;2023-04-06T09:42:41;7.90;;;1.17;;
19406;SDS011;9839;53.364;-1.204;2023-04-06T09:45:07;4.90;;;1.27;;
19406;SDS011;9839;53.364;-1.204;2023-04-06T09:47:35;7.40;;;1.17;;
19406;SDS011;9839;53.364;-1.204;2023-04-06T09:50:02;6.15;;;1.02;;
19406;SDS011;9839;53.364;-1.204;2023-04-06T09:52:41;5.28;;;1.00;;
19406;SDS011;9839;53.364;-1.204;2023-04-06T09:55:12;9.63;;;2.20;;
19406;SDS011;9839;53.364;-1.204;2023-04-06T09:58:08;6.03;;;1.38;;
19406;SDS011;9839;53.364;-1.204;2023-04-06T10:00:47;7.88;;;1.30;;
19406;SDS011;9839;53.364;-1.204;2023-04-06T10:06:13;7.63;;;1.08;;
19406;SDS011;9839;53.364;-1.204;2023-04-06T10:08:39;6.78;;;1.05;;
19406;SDS011;9839;53.364;-1.204;2023-04-06T10:11:06;3.67;;;1.23;;
19406;SDS011;9839;53.364;-1.204;2023-04-06T10:13:32;6.97;;;1.38;;
19406;SDS011;9839;53.364;-1.204;2023-04-06T10:15:58;4.90;;;1.10;;
19406;SDS011;9839;53.364;-1.204;2023-04-06T10:18:25;7.28;;;1.08;;
19406;SDS011;9839;53.364;-1.204;2023-04-06T10:23:47;4.70;;;1.17;;
19406;SDS011;9839;53.364;-1.204;2023-04-06T10:26:15;7.55;;;1.00;;
19406;SDS011;9839;53.364;-1.204;2023-04-06T10:28:43;7.15;;;1.00;;
19406;SDS011;9839;53.364;-1.204;2023-04-06T10:31:10;6.05;;;1.05;;
19406;SDS011;9839;53.364;-1.204;2023-04-06T10:33:36;5.70;;;1.00;;
19406;SDS011;9839;53.364;-1.204;2023-04-06T10:36:11;5.35;;;0.98;;
19406;SDS011;9839;53.364;-1.204;2023-04-06T10:38:46;6.93;;;0.98;;
19406;SDS011;9839;53.364;-1.204;2023-04-06T10:41:11;5.65;;;1.40;;
19406;SDS011;9839;53.364;-1.204;2023-04-06T10:43:38;3.45;;;0.70;;
19406;SDS011;9839;53.364;-1.204;2023-04-06T10:46:06;4.75;;;1.00;;
19406;SDS011;9839;53.364;-1.204;2023-04-06T10:48:39;3.45;;;1.30;;
19406;SDS011;9839;53.364;-1.204;2023-04-06T10:51:12;7.00;;;1.00;;
19406;SDS011;9839;53.364;-1.204;2023-04-06T10:53:39;6.15;;;1.17;;
19406;SDS011;9839;53.364;-1.204;2023-04-06T10:56:09;3.53;;;1.00;;
19406;SDS011;9839;53.364;-1.204;2023-04-06T10:58:36;8.88;;;1.13;;
19406;SDS011;9839;53.364;-1.204;2023-04-06T11:01:02;6.95;;;1.15;;
19406;SDS011;9839;53.364;-1.204;2023-04-06T11:03:29;7.70;;;1.25;;
19406;SDS011;9839;53.364;-1.204;2023-04-06T11:05:54;6.90;;;1.45;;
19406;SDS011;9839;53.364;-1.204;2023-04-06T11:10:48;9.43;;;1.25;;
19406;SDS011;9839;53.364;-1.204;2023-04-06T11:13:14;5.25;;;1.13;;
19406;SDS011;9839;53.364;-1.204;2023-04-06T11:15:40;6.13;;;1.20;;
19406;SDS011;9839;53.364;-1.204;2023-04-06T11:18:05;6.40;;;1.30;;
19406;SDS011;9839;53.364;-1.204;2023-04-06T11:20:31;3.38;;;1.33;;
19406;SDS011;9839;53.364;-1.204;2023-04-06T11:22:56;4.90;;;1.52;;
19406;SDS011;9839;53.364;-1.204;2023-04-06T11:25:24;5.32;;;1.08;;
19406;SDS011;9839;53.364;-1.204;2023-04-06T11:27:51;5.05;;;0.90;;
19406;SDS011;9839;53.364;-1.204;2023-04-06T11:30:16;6.20;;;0.90;;
19406;SDS011;9839;53.364;-1.204;2023-04-06T11:32:42;5.47;;;1.15;;
19406;SDS011;9839;53.364;-1.204;2023-04-06T11:35:19;4.53;;;1.50;;
19406;SDS011;9839;53.364;-1.204;2023-04-06T11:37:46;6.68;;;1.10;;
19406;SDS011;9839;53.364;-1.204;2023-04-06T11:40:11;5.07;;;1.00;;
19406;SDS011;9839;53.364;-1.204;2023-04-06T11:42:36;5.38;;;1.20;;
19406;SDS011;9839;53.364;-1.204;2023-04-06T11:45:02;4.95;;;1.10;;
19406;SDS011;9839;53.364;-1.204;2023-04-06T11:47:28;5.97;;;1.52;;
19406;SDS011;9839;53.364;-1.204;2023-04-06T11:50:12;6.55;;;1.17;;
19406;SDS011;9839;53.364;-1.204;2023-04-06T11:52:38;7.07;;;1.13;;
19406;SDS011;9839;53.364;-1.204;2023-04-06T11:55:12;9.20;;;1.40;;
19406;SDS011;9839;53.364;-1.204;2023-04-06T11:57:41;4.90;;;1.08;;
19406;SDS011;9839;53.364;-1.204;2023-04-06T12:00:07;4.25;;;1.35;;
19406;SDS011;9839;53.364;-1.204;2023-04-06T12:02:34;9.32;;;1.02;;
19406;SDS011;9839;53.364;-1.204;2023-04-06T12:05:03;4.55;;;1.08;;
19406;SDS011;9839;53.364;-1.204;2023-04-06T12:07:30;9.10;;;0.93;;
19406;SDS011;9839;53.364;-1.204;2023-04-06T12:09:57;4.28;;;0.80;;
19406;SDS011;9839;53.364;-1.204;2023-04-06T12:12:24;6.57;;;1.05;;
19406;SDS011;9839;53.364;-1.204;2023-04-06T12:14:49;2.83;;;0.75;;
19406;SDS011;9839;53.364;-1.204;2023-04-06T12:17:15;6.68;;;1.20;;
19406;SDS011;9839;53.364;-1.204;2023-04-06T12:19:40;5.30;;;0.90;;
19406;SDS011;9839;53.364;-1.204;2023-04-06T12:22:06;9.05;;;1.05;;
19406;SDS011;9839;53.364;-1.204;2023-04-06T12:24:31;4.15;;;0.90;;
19406;SDS011;9839;53.364;-1.204;2023-04-06T12:26:56;6.88;;;1.45;;
19406;SDS011;9839;53.364;-1.204;2023-04-06T12:29:24;7.55;;;0.90;;
19406;SDS011;9839;53.364;-1.204;2023-04-06T12:31:49;6.80;;;1.38;;
19406;SDS011;9839;53.364;-1.204;2023-04-06T12:34:16;6.45;;;1.08;;
19406;SDS011;9839;53.364;-1.204;2023-04-06T12:36:41;3.63;;;0.80;;
19406;SDS011;9839;53.364;-1.204;2023-04-06T12:39:07;6.68;;;1.08;;
19406;SDS011;9839;53.364;-1.204;2023-04-06T12:41:32;5.10;;;0.57;;
19406;SDS011;9839;53.364;-1.204;2023-04-06T12:43:58;4.53;;;0.80;;
19406;SDS011;9839;53.364;-1.204;2023-04-06T12:46:24;3.95;;;0.88;;
19406;SDS011;9839;53.364;-1.204;2023-04-06T12:48:50;3.65;;;0.80;;
19406;SDS011;9839;53.364;-1.204;2023-04-06T12:51:18;4.35;;;0.88;;
19406;SDS011;9839;53.364;-1.204;2023-04-06T12:53:44;3.63;;;1.00;;
19406;SDS011;9839;53.364;-1.204;2023-04-06T12:56:11;4.18;;;0.70;;
19406;SDS011;9839;53.364;-1.204;2023-04-06T12:58:38;4.32;;;0.68;;
19406;SDS011;9839;53.364;-1.204;2023-04-06T13:01:05;2.55;;;0.73;;
19406;SDS011;9839;53.364;-1.204;2023-04-06T13:03:31;4.22;;;0.95;;
19406;SDS011;9839;53.364;-1.204;2023-04-06T13:05:58;5.47;;;1.33;;
19406;SDS011;9839;53.364;-1.204;2023-04-06T13:08:24;8.93;;;0.95;;
19406;SDS011;9839;53.364;-1.204;2023-04-06T13:10:50;7.22;;;0.93;;
19406;SDS011;9839;53.364;-1.204;2023-04-06T13:13:21;4.68;;;1.00;;
19406;SDS011;9839;53.364;-1.204;2023-04-06T13:15:48;11.13;;;1.13;;
19406;SDS011;9839;53.364;-1.204;2023-04-06T13:18:13;7.53;;;1.25;;
19406;SDS011;9839;53.364;-1.204;2023-04-06T13:20:38;5.13;;;1.13;;
19406;SDS011;9839;53.364;-1.204;2023-04-06T13:23:04;2.50;;;0.80;;
19406;SDS011;9839;53.364;-1.204;2023-04-06T13:25:30;7.72;;;0.90;;
19406;SDS011;9839;53.364;-1.204;2023-04-06T13:27:57;4.30;;;1.10;;
19406;SDS011;9839;53.364;-1.204;2023-04-06T13:30:23;8.75;;;2.25;;
19406;SDS011;9839;53.364;-1.204;2023-04-06T13:32:48;4.43;;;0.80;;
19406;SDS011;9839;53.364;-1.204;2023-04-06T13:35:14;6.75;;;0.90;;
19406;SDS011;9839;53.364;-1.204;2023-04-06T13:37:40;3.10;;;0.70;;
19406;SDS011;9839;53.364;-1.204;2023-04-06T13:40:05;2.95;;;0.50;;
19406;SDS011;9839;53.364;-1.204;2023-04-06T13:42:31;7.57;;;0.60;;
19406;SDS011;9839;53.364;-1.204;2023-04-06T13:44:57;6.18;;;0.90;;
19406;SDS011;9839;53.364;-1.204;2023-04-06T13:47:23;6.07;;;0.70;;
19406;SDS011;9839;53.364;-1.204;2023-04-06T13:49:51;5.18;;;0.90;;
19406;SDS011;9839;53.364;-1.204;2023-04-06T13:52:18;2.83;;;1.00;;
19406;SDS011;9839;53.364;-1.204;2023-04-06T13:54:44;4.88;;;1.02;;
19406;SDS011;9839;53.364;-1.204;2023-04-06T13:57:10;6.80;;;0.80;;
19406;SDS011;9839;53.364;-1.204;2023-04-06T13:59:36;5.25;;;0.98;;
19406;SDS011;9839;53.364;-1.204;2023-04-06T14:02:02;6.85;;;0.93;;
19406;SDS011;9839;53.364;-1.204;2023-04-06T14:04:29;4.68;;;0.70;;
19406;SDS011;9839;53.364;-1.204;2023-04-06T14:06:55;6.00;;;0.90;;
19406;SDS011;9839;53.364;-1.204;2023-04-06T14:09:21;3.72;;;0.88;;
19406;SDS011;9839;53.364;-1.204;2023-04-06T14:11:46;3.55;;;0.68;;
19406;SDS011;9839;53.364;-1.204;2023-04-06T14:14:12;5.05;;;0.85;;
19406;SDS011;9839;53.364;-1.204;2023-04-06T14:16:37;1.92;;;0.80;;
19406;SDS011;9839;53.364;-1.204;2023-04-06T14:19:03;3.65;;;0.65;;
19406;SDS011;9839;53.364;-1.204;2023-04-06T14:21:28;3.95;;;0.70;;
19406;SDS011;9839;53.364;-1.204;2023-04-06T14:23:54;2.47;;;0.75;;
19406;SDS011;9839;53.364;-1.204;2023-04-06T14:26:20;3.35;;;0.85;;
19406;SDS011;9839;53.364;-1.204;2023-04-06T14:28:45;7.35;;;0.73;;
19406;SDS011;9839;53.364;-1.204;2023-04-06T14:31:14;4.82;;;0.80;;
19406;SDS011;9839;53.364;-1.204;2023-04-06T14:33:41;3.70;;;0.90;;
19406;SDS011;9839;53.364;-1.204;2023-04-06T14:36:07;1.90;;;0.80;;
19406;SDS011;9839;53.364;-1.204;2023-04-06T14:38:33;3.22;;;0.75;;
19406;SDS011;9839;53.364;-1.204;2023-04-06T14:40:58;9.23;;;1.20;;